createdAt,value
2019-02-18T00:01:33.030Z,42.60
2019-02-18T00:04:13.578Z,42.50
2019-02-18T00:06:54.385Z,42.50
2019-02-18T00:09:35.149Z,42.50
2019-02-18T00:12:15.836Z,42.50
2019-02-18T00:14:56.617Z,42.50
2019-02-18T00:17:37.345Z,42.50
2019-02-18T00:20:18.337Z,42.50
2019-02-18T00:22:59.064Z,42.50
2019-02-18T00:25:39.741Z,42.50
2019-02-18T00:28:20.626Z,42.40
2019-02-18T00:31:00.966Z,42.40
2019-02-18T00:33:41.888Z,42.40
2019-02-18T00:36:22.705Z,42.40
2019-02-18T00:39:04.514Z,42.40
2019-02-18T00:41:45.118Z,42.40
2019-02-18T00:44:26.048Z,42.30
2019-02-18T00:47:07.293Z,42.30
2019-02-18T00:49:47.832Z,42.30
2019-02-18T00:52:28.889Z,42.30
2019-02-18T00:55:09.233Z,42.20
2019-02-18T00:57:49.729Z,42.20
2019-02-18T01:00:30.254Z,42.30
2019-02-18T01:03:11.466Z,42.20
2019-02-18T01:05:52.237Z,42.10
2019-02-18T01:08:33.077Z,42.10
2019-02-18T01:11:14.079Z,42.00
2019-02-18T01:13:56.038Z,42.00
2019-02-18T01:16:37.229Z,42.00
2019-02-18T01:19:18.526Z,42.00
2019-02-18T01:21:59.401Z,42.00
2019-02-18T01:24:40.870Z,42.00
2019-02-18T01:27:21.622Z,42.00
2019-02-18T01:30:02.314Z,42.00
2019-02-18T01:32:43.580Z,42.00
2019-02-18T01:35:24.609Z,41.90
2019-02-18T01:38:05.105Z,41.90
2019-02-18T01:40:46.006Z,42.00
2019-02-18T01:43:27.857Z,42.00
2019-02-18T01:46:08.378Z,41.90
2019-02-18T01:48:49.293Z,41.90
2019-02-18T01:51:31.123Z,41.80
2019-02-18T01:54:11.757Z,41.80
2019-02-18T01:56:53.711Z,42.40
2019-02-18T01:59:34.159Z,41.80
2019-02-18T02:02:16.237Z,41.90
2019-02-18T02:07:35.366Z,41.80
2019-02-18T02:10:16.411Z,41.80
2019-02-18T02:12:57.085Z,41.80
2019-02-18T02:15:38.143Z,41.80
2019-02-18T02:21:03.373Z,41.70
2019-02-18T02:26:28.117Z,41.60
2019-02-18T02:29:08.859Z,41.70
2019-02-18T02:31:49.879Z,41.70
2019-02-18T02:34:31.114Z,42.40
2019-02-18T02:37:11.762Z,41.70
2019-02-18T02:39:52.421Z,41.70
2019-02-18T02:42:33.317Z,41.70
2019-02-18T02:45:14.210Z,41.70
2019-02-18T02:47:55.089Z,41.70
2019-02-18T02:50:36.992Z,41.70
2019-02-18T02:53:17.381Z,41.70
2019-02-18T02:58:45.080Z,41.60
2019-02-18T03:04:11.333Z,41.50
2019-02-18T03:06:51.839Z,41.40
2019-02-18T03:09:33.086Z,41.40
2019-02-18T03:14:57.806Z,41.40
2019-02-18T03:17:38.236Z,41.40
